Aérodrome :
LOGIN :

S'inscrire | Disclaimer

   EN    FR    IT 

 










Légende :    VFR   VFR Marginal   IFR   IFR Intensif   IFR Très Intensif
Visi : 
Plafond : 
>= 8 km
>= 3000ft
5 à 8 km
1000 à 3000 ft
1500m à 5 km
500 à 1000 ft
800 à 1500m
200 à 500 ft
< 800m
< 200 ft
Symboles :   Orages  Brouillard  Fortes neiges  Fortes précipitations  Vent > 20 kt
SIGMETs :   Divers  Orages  Givrage  Turbulence  Onde Orograph.  Cendres Volcan.






- Altitude de l'aérodrome : 21 ft
- Code IATA : BJV


LTFE - Bodrum

DERNIER METAR :
  • 191950Z 35008KT 320V030 CAVOK 04/M14 Q1022 NOSIG RMK RWY10 36005KT 320V020

METARs EXPIRÉS :
  • 191920Z 06007KT 030V090 CAVOK 02/M12 Q1022 NOSIG RMK RWY10 17005KT 110V200
  • 191850Z 01004KT 320V030 CAVOK 02/M13 Q1022 NOSIG RMK RWY10 VRB02KT
  • 191820Z 05006KT 010V090 CAVOK 03/M12 Q1021 NOSIG RMK RWY10 VRB02KT
  • 191750Z 06008KT 010V080 CAVOK 04/M12 Q1021 NOSIG RMK RWY10 36004KT 300V060
  • 191720Z 33006KT 310V010 CAVOK 04/M13 Q1021 NOSIG RMK RWY10 04008KT

TAF TAF LTFE
Valide du 19 à 18h jusqu'au 20 à 18h UTC


191640Z 1918/2018 02012KT CAVOK
BECMG 1918/1921 VRB02KT
TEMPO 2010/2014 34012KT



MET'MAP, la Météo Aéronautique d'un coup d'oeil ! - Copyright ORBIFLY Décembre 2007 - Disclaimer

ORBIFLY MET'MAP TEAM :

Programmation & Développement : Alexandra Zaïnal
Sur une idée originale de : Baudouin d'Aumeries
Assistance à la programmation : Marc-Olivier Méhu
Soutien technique & logistique : Manuel Goepfert

Contact : metmap@orbifly.com




SOURCES & CREDITS :

   NOAA